Time;durP1;ratioP1;P1;durP2;ratioP2;P2;SDS_P1;SDS_P2;PMS_P1;PMS_P2;Temp;Humidity;BMP_temperature;BMP_pressure;BME280_temperature;BME280_humidity;BME280_pressure;Samples;Min_cycle;Max_cycle;Signal;HPM_P1;HPM_P2
2023/05/24 00:01:36;;;;;;;11.03;2.50;;;12.40;99.90;;;;;;5075832;28;20238;-77
2023/05/24 00:04:04;;;;;;;15.43;2.70;;;12.50;99.90;;;;;;5075593;28;20163;-77
2023/05/24 00:06:33;;;;;;;7.73;2.53;;;12.40;99.90;;;;;;5073876;28;20670;-77
2023/05/24 00:08:59;;;;;;;9.63;2.47;;;12.30;99.90;;;;;;5073069;28;20196;-77
2023/05/24 00:11:26;;;;;;;15.53;2.93;;;12.20;99.90;;;;;;5074313;28;20178;-76
2023/05/24 00:13:52;;;;;;;10.63;2.97;;;12.10;99.90;;;;;;5073911;28;20226;-78
2023/05/24 00:16:18;;;;;;;14.00;3.00;;;12.20;99.90;;;;;;5075465;28;20189;-77
2023/05/24 00:18:45;;;;;;;14.50;2.70;;;12.10;99.90;;;;;;5075764;28;20186;-76
2023/05/24 00:21:12;;;;;;;11.00;2.53;;;12.20;99.90;;;;;;5075198;28;20261;-76
2023/05/24 00:23:38;;;;;;;13.20;2.57;;;12.20;99.90;;;;;;5075355;28;20162;-78
2023/05/24 00:26:04;;;;;;;14.00;3.47;;;12.30;99.90;;;;;;5074828;28;20193;-76
2023/05/24 00:28:31;;;;;;;14.13;2.50;;;12.30;99.90;;;;;;5073975;28;20175;-76
2023/05/24 00:31:00;;;;;;;9.13;2.83;;;12.20;99.90;;;;;;5073896;28;20662;-78
2023/05/24 00:33:27;;;;;;;10.90;2.60;;;12.20;99.90;;;;;;5075348;28;20179;-78
2023/05/24 00:35:55;;;;;;;12.33;3.00;;;12.20;99.90;;;;;;5074861;28;20189;-77
2023/05/24 00:38:25;;;;;;;9.80;2.67;;;12.20;99.90;;;;;;5073826;28;20185;-78
2023/05/24 00:40:51;;;;;;;14.87;3.00;;;12.10;99.90;;;;;;5073691;28;20161;-78
2023/05/24 00:43:18;;;;;;;10.20;2.17;;;12.00;99.90;;;;;;5073785;28;20174;-76
2023/05/24 00:45:43;;;;;;;18.97;2.90;;;11.90;99.90;;;;;;5073488;28;20254;-76
2023/05/24 00:48:10;;;;;;;9.27;2.80;;;11.90;99.90;;;;;;5074555;28;20217;-76
2023/05/24 00:50:38;;;;;;;13.37;3.00;;;11.90;99.90;;;;;;5072867;28;20269;-76
2023/05/24 00:53:05;;;;;;;12.17;2.80;;;11.90;99.90;;;;;;5073756;28;20170;-76
2023/05/24 00:55:32;;;;;;;13.43;2.87;;;11.80;99.90;;;;;;5072635;28;20212;-76
2023/05/24 00:57:58;;;;;;;13.97;2.53;;;11.80;99.90;;;;;;5074641;28;20173;-76
2023/05/24 01:00:26;;;;;;;14.23;2.60;;;11.80;99.90;;;;;;5074743;28;20177;-75
2023/05/24 01:02:53;;;;;;;9.47;3.03;;;11.80;99.90;;;;;;5074628;28;20250;-78
2023/05/24 01:05:19;;;;;;;10.20;3.33;;;11.70;99.90;;;;;;5074596;28;20747;-77
2023/05/24 01:08:09;;;;;;;11.37;2.83;;;11.60;99.90;;;;;;5073873;28;20220;-76
2023/05/24 01:10:58;;;;;;;11.50;3.50;;;11.70;99.90;;;;;;5073525;28;20218;-77
2023/05/24 01:13:36;;;;;;;10.63;2.83;;;11.70;99.90;;;;;;5073872;28;20262;-77
2023/05/24 01:16:32;;;;;;;17.00;3.33;;;11.70;99.90;;;;;;5072694;28;20193;-77
2023/05/24 01:19:04;;;;;;;16.50;3.03;;;11.60;99.90;;;;;;5057207;28;20168;-77
2023/05/24 01:21:48;;;;;;;12.27;3.00;;;11.50;99.90;;;;;;5074036;28;20599;-77
2023/05/24 01:25:00;;;;;;;12.87;3.63;;;11.60;99.90;;;;;;5072747;28;20627;-77
2023/05/24 01:27:27;;;;;;;14.50;3.30;;;11.50;99.90;;;;;;5051672;28;20190;-77
2023/05/24 01:29:54;;;;;;;12.53;3.63;;;11.50;99.90;;;;;;5054048;28;20530;-78
2023/05/24 01:32:20;;;;;;;11.03;2.90;;;11.50;99.90;;;;;;5054054;28;20173;-77
2023/05/24 01:34:46;;;;;;;10.83;3.00;;;11.50;99.90;;;;;;5053689;28;20185;-77
2023/05/24 01:37:12;;;;;;;17.50;3.50;;;11.40;99.90;;;;;;5056131;28;20165;-76
2023/05/24 01:39:38;;;;;;;15.43;3.40;;;11.40;99.90;;;;;;5072408;28;20198;-76
2023/05/24 01:42:24;;;;;;;14.67;3.40;;;11.40;99.90;;;;;;5073681;28;20176;-74
2023/05/24 01:45:12;;;;;;;12.10;2.93;;;11.30;99.90;;;;;;5072648;28;20563;-75
2023/05/24 01:47:56;;;;;;;12.43;3.27;;;11.30;99.90;;;;;;5073956;28;20246;-75
2023/05/24 01:50:30;;;;;;;14.33;3.60;;;11.30;99.90;;;;;;5073545;28;20656;-75
2023/05/24 01:53:02;;;;;;;10.57;3.10;;;11.30;99.90;;;;;;5073417;28;20209;-75
2023/05/24 01:55:31;;;;;;;14.97;3.80;;;11.30;99.90;;;;;;5073651;28;20182;-75
2023/05/24 01:58:01;;;;;;;9.20;3.17;;;11.40;99.90;;;;;;5072540;28;20597;-74
2023/05/24 02:00:28;;;;;;;19.97;4.00;;;11.30;99.90;;;;;;5073517;28;20164;-75
2023/05/24 02:02:56;;;;;;;12.00;3.10;;;11.30;99.90;;;;;;5073536;28;20153;-75
2023/05/24 02:05:24;;;;;;;14.10;3.53;;;11.40;99.90;;;;;;5071328;28;20629;-74
2023/05/24 02:07:51;;;;;;;14.80;3.53;;;11.40;99.90;;;;;;5072102;28;20614;-74
2023/05/24 02:10:17;;;;;;;13.80;4.07;;;11.50;99.90;;;;;;5073311;28;20636;-75
2023/05/24 02:12:42;;;;;;;15.47;3.67;;;11.40;99.90;;;;;;5072138;28;20200;-75
2023/05/24 02:15:09;;;;;;;13.40;3.90;;;11.40;99.90;;;;;;5073346;28;20560;-75
2023/05/24 02:17:35;;;;;;;18.07;3.67;;;11.30;99.90;;;;;;5071639;28;20220;-74
2023/05/24 02:20:03;;;;;;;17.70;3.47;;;11.30;99.90;;;;;;5072128;28;20199;-74
2023/05/24 02:22:28;;;;;;;16.67;3.40;;;11.20;99.90;;;;;;5072804;28;20178;-75
2023/05/24 02:24:54;;;;;;;18.00;4.10;;;11.20;99.90;;;;;;5072699;28;20598;-74
2023/05/24 02:27:20;;;;;;;18.17;3.90;;;11.20;99.90;;;;;;5072462;28;20168;-76
2023/05/24 02:29:46;;;;;;;17.17;3.77;;;11.10;99.90;;;;;;5072034;28;20173;-76
2023/05/24 02:32:14;;;;;;;10.73;3.03;;;11.10;99.90;;;;;;5072007;28;20234;-75
2023/05/24 02:34:39;;;;;;;17.20;3.90;;;11.10;99.90;;;;;;5072448;28;20285;-75
2023/05/24 02:37:05;;;;;;;13.10;4.00;;;11.10;99.90;;;;;;5071211;28;20184;-75
2023/05/24 02:39:32;;;;;;;16.10;3.70;;;11.10;99.90;;;;;;5072196;28;20172;-76
2023/05/24 02:41:59;;;;;;;11.70;4.50;;;11.10;99.90;;;;;;5071666;28;20170;-75
2023/05/24 02:44:25;;;;;;;17.57;3.80;;;11.10;99.90;;;;;;5072287;28;20182;-75
2023/05/24 02:46:50;;;;;;;14.03;3.87;;;11.10;99.90;;;;;;5072753;28;20156;-75
2023/05/24 02:49:16;;;;;;;15.50;4.43;;;11.10;99.90;;;;;;5072610;28;20173;-75
2023/05/24 02:51:42;;;;;;;16.90;4.00;;;11.10;99.90;;;;;;5072638;28;20170;-76
2023/05/24 02:54:08;;;;;;;10.50;3.37;;;11.10;99.90;;;;;;5071658;28;20171;-76
2023/05/24 02:56:36;;;;;;;10.00;3.53;;;11.10;99.90;;;;;;5071560;28;20212;-75
2023/05/24 02:59:02;;;;;;;15.03;4.10;;;11.00;99.90;;;;;;5072836;28;20169;-75
2023/05/24 03:01:27;;;;;;;15.73;3.70;;;10.90;99.90;;;;;;5070295;28;20252;-75
2023/05/24 03:03:53;;;;;;;15.17;4.47;;;11.00;99.90;;;;;;5070383;28;20177;-75
2023/05/24 03:06:20;;;;;;;13.27;3.70;;;11.00;99.90;;;;;;5072221;28;20522;-75
2023/05/24 03:08:48;;;;;;;14.73;3.80;;;11.00;99.90;;;;;;5071170;28;20664;-75
2023/05/24 03:11:14;;;;;;;15.53;4.07;;;10.90;99.90;;;;;;5072355;28;20528;-76
2023/05/24 03:13:40;;;;;;;12.47;3.93;;;11.00;99.90;;;;;;5072749;28;20154;-75
2023/05/24 03:16:05;;;;;;;11.37;3.43;;;10.90;99.90;;;;;;5071211;28;20204;-75
2023/05/24 03:18:31;;;;;;;13.37;4.20;;;10.90;99.90;;;;;;5074968;28;20178;-74
2023/05/24 03:20:57;;;;;;;18.83;3.80;;;10.80;99.90;;;;;;5075778;28;20551;-76
2023/05/24 03:23:22;;;;;;;14.90;3.30;;;10.80;99.90;;;;;;5076011;28;20181;-75
2023/05/24 03:25:48;;;;;;;14.37;3.60;;;10.80;99.90;;;;;;5076165;28;20222;-75
2023/05/24 03:28:14;;;;;;;14.90;3.83;;;10.80;99.90;;;;;;5076065;28;20169;-75
2023/05/24 03:30:40;;;;;;;11.80;3.97;;;10.80;99.90;;;;;;5076286;28;20168;-75
2023/05/24 03:33:06;;;;;;;15.10;4.23;;;10.80;99.90;;;;;;5074415;28;20625;-75
2023/05/24 03:35:32;;;;;;;9.80;4.30;;;10.70;99.90;;;;;;5076448;28;20191;-75
2023/05/24 03:37:58;;;;;;;22.13;4.33;;;10.70;99.90;;;;;;5075941;28;20676;-76
2023/05/24 03:40:24;;;;;;;12.50;3.97;;;10.70;99.90;;;;;;5075914;28;20173;-75
2023/05/24 03:42:51;;;;;;;15.70;4.60;;;10.70;99.90;;;;;;5074368;28;20175;-75
2023/05/24 03:45:18;;;;;;;13.20;3.97;;;10.60;99.90;;;;;;5076250;28;20160;-75
2023/05/24 03:47:45;;;;;;;15.87;3.97;;;10.50;99.90;;;;;;5076012;28;20183;-75
2023/05/24 03:50:13;;;;;;;13.20;3.90;;;10.50;99.90;;;;;;5074177;28;20251;-75
2023/05/24 03:52:40;;;;;;;19.30;4.40;;;10.60;99.90;;;;;;5075628;28;20168;-76
2023/05/24 03:55:06;;;;;;;13.97;4.07;;;10.60;99.90;;;;;;5074006;28;20194;-74
2023/05/24 03:57:32;;;;;;;11.80;3.63;;;10.70;99.90;;;;;;5073997;28;20533;-74
2023/05/24 03:59:59;;;;;;;17.07;4.73;;;10.70;99.90;;;;;;5075610;28;20684;-74
2023/05/24 04:02:25;;;;;;;19.83;3.90;;;10.60;99.90;;;;;;5075681;28;20315;-75
2023/05/24 04:04:51;;;;;;;12.30;3.80;;;10.70;99.90;;;;;;5073871;28;20252;-75
2023/05/24 04:07:18;;;;;;;13.67;3.90;;;10.70;99.90;;;;;;5074418;28;20171;-74
2023/05/24 04:09:43;;;;;;;16.73;4.20;;;10.70;99.90;;;;;;5075799;28;20159;-76
2023/05/24 04:12:10;;;;;;;17.53;4.53;;;10.60;99.90;;;;;;5074227;28;20540;-76
2023/05/24 04:14:36;;;;;;;12.50;3.63;;;10.60;99.90;;;;;;5073739;28;20159;-76
2023/05/24 04:17:03;;;;;;;14.10;3.73;;;10.60;99.90;;;;;;5075377;28;20186;-77
2023/05/24 04:19:28;;;;;;;13.17;4.03;;;10.70;99.90;;;;;;5075132;28;20608;-75
2023/05/24 04:21:54;;;;;;;14.43;3.57;;;10.70;99.90;;;;;;5073594;28;20204;-76
2023/05/24 04:24:20;;;;;;;10.87;3.93;;;10.70;99.90;;;;;;5075620;28;20168;-76
2023/05/24 04:26:46;;;;;;;15.97;3.53;;;10.70;99.90;;;;;;5074804;28;20187;-76
2023/05/24 04:29:13;;;;;;;16.77;4.00;;;10.80;99.90;;;;;;5074671;28;20199;-76
2023/05/24 04:31:42;;;;;;;14.40;4.03;;;10.80;99.90;;;;;;5076313;28;20197;-76
2023/05/24 04:34:11;;;;;;;15.83;3.77;;;10.80;99.90;;;;;;5075731;28;20194;-78
2023/05/24 04:36:37;;;;;;;12.33;3.90;;;10.80;99.90;;;;;;5075803;28;20199;-78
2023/05/24 04:39:03;;;;;;;11.70;3.70;;;10.90;99.90;;;;;;5073801;28;20177;-77
2023/05/24 04:41:31;;;;;;;13.20;3.93;;;10.90;99.90;;;;;;5073246;28;20165;-78
2023/05/24 04:43:58;;;;;;;21.43;5.10;;;10.90;99.90;;;;;;5074671;28;20183;-76
2023/05/24 04:46:25;;;;;;;12.93;4.33;;;11.00;99.90;;;;;;5073856;28;20175;-77
2023/05/24 04:48:51;;;;;;;16.53;4.20;;;11.00;99.90;;;;;;5073186;28;20188;-77
2023/05/24 04:51:16;;;;;;;13.97;4.50;;;11.00;99.90;;;;;;5073178;28;20172;-77
2023/05/24 04:53:42;;;;;;;13.10;4.37;;;11.00;99.90;;;;;;5073377;28;20540;-77
2023/05/24 04:56:08;;;;;;;16.80;4.10;;;11.10;99.90;;;;;;5074300;28;20586;-78
2023/05/24 04:58:35;;;;;;;12.67;4.40;;;11.20;99.90;;;;;;5073549;28;20179;-76
2023/05/24 05:01:01;;;;;;;15.57;4.60;;;11.20;99.90;;;;;;5074083;28;20593;-77
2023/05/24 05:03:27;;;;;;;12.03;4.90;;;11.20;99.90;;;;;;5073782;28;20170;-77
2023/05/24 05:05:52;;;;;;;16.00;5.33;;;11.30;99.90;;;;;;5073989;28;20172;-75
2023/05/24 05:08:19;;;;;;;12.47;4.83;;;11.30;99.90;;;;;;5073225;28;20265;-76
2023/05/24 05:10:46;;;;;;;21.03;5.27;;;11.30;99.90;;;;;;5072393;28;20208;-78
2023/05/24 05:13:12;;;;;;;19.30;4.93;;;11.30;99.90;;;;;;5072685;28;20510;-76
2023/05/24 05:15:38;;;;;;;14.73;4.77;;;11.40;99.90;;;;;;5075065;28;20250;-77
2023/05/24 05:18:03;;;;;;;18.60;5.20;;;11.40;99.90;;;;;;5073667;28;20166;-77
2023/05/24 05:20:29;;;;;;;20.10;5.23;;;11.40;99.90;;;;;;5063079;28;20234;-77
2023/05/24 05:22:57;;;;;;;14.97;4.70;;;11.50;99.90;;;;;;5054254;28;20175;-77
2023/05/24 05:25:22;;;;;;;23.63;5.83;;;11.50;99.90;;;;;;5060169;28;20188;-77
2023/05/24 05:27:48;;;;;;;27.03;5.53;;;11.60;99.90;;;;;;5072487;28;20540;-77
2023/05/24 05:30:14;;;;;;;19.73;5.30;;;11.80;99.90;;;;;;5073839;28;20167;-78
2023/05/24 05:32:41;;;;;;;15.73;5.13;;;11.80;99.90;;;;;;5072437;28;20467;-77
2023/05/24 05:35:07;;;;;;;20.60;5.40;;;12.00;99.90;;;;;;5074003;28;20374;-76
2023/05/24 05:37:33;;;;;;;13.57;4.67;;;12.10;99.90;;;;;;5073550;28;20211;-76
2023/05/24 05:39:59;;;;;;;20.47;5.87;;;12.10;99.90;;;;;;5072335;28;20219;-76
2023/05/24 05:42:25;;;;;;;16.87;5.40;;;12.10;99.90;;;;;;5073890;28;20176;-76
2023/05/24 05:44:51;;;;;;;17.03;5.43;;;12.10;99.90;;;;;;5073933;28;20154;-77
2023/05/24 05:47:17;;;;;;;14.67;5.07;;;12.10;99.90;;;;;;5071978;28;20176;-76
2023/05/24 05:49:42;;;;;;;23.53;5.50;;;12.10;99.90;;;;;;5073549;28;20154;-77
2023/05/24 05:52:09;;;;;;;19.27;5.33;;;12.10;99.90;;;;;;5072035;28;20492;-76
2023/05/24 05:54:36;;;;;;;20.80;5.70;;;12.20;99.90;;;;;;5071802;28;20615;-76
2023/05/24 05:57:01;;;;;;;25.77;5.40;;;12.30;99.90;;;;;;5071828;28;20189;-77
2023/05/24 05:59:27;;;;;;;24.40;5.30;;;12.40;99.90;;;;;;5072981;28;20172;-76
2023/05/24 06:01:53;;;;;;;28.00;6.97;;;12.40;99.90;;;;;;5073156;28;20188;-77
2023/05/24 06:04:18;;;;;;;20.97;6.00;;;12.50;99.90;;;;;;5073035;28;20175;-77
2023/05/24 06:06:48;;;;;;;27.50;5.83;;;12.50;99.90;;;;;;5071968;28;20182;-75
2023/05/24 06:09:14;;;;;;;26.20;5.27;;;12.60;99.90;;;;;;5073188;28;20178;-75
2023/05/24 06:11:43;;;;;;;20.30;5.13;;;12.70;99.90;;;;;;5073223;28;20159;-76
2023/05/24 06:14:17;;;;;;;19.00;4.63;;;12.80;99.90;;;;;;5073059;28;20620;-76
2023/05/24 06:16:44;;;;;;;18.77;5.00;;;12.70;99.90;;;;;;5073076;28;20186;-76
2023/05/24 06:19:11;;;;;;;18.77;4.67;;;12.90;99.90;;;;;;5072641;28;20257;-76
2023/05/24 06:21:37;;;;;;;14.23;3.93;;;12.90;99.90;;;;;;5071749;28;20170;-76
2023/05/24 06:24:03;;;;;;;15.80;4.10;;;13.00;99.90;;;;;;5073102;28;20174;-76
2023/05/24 06:26:29;;;;;;;13.87;3.87;;;13.00;99.90;;;;;;5071756;28;20282;-76
2023/05/24 06:28:55;;;;;;;13.20;3.87;;;13.00;99.90;;;;;;5072831;28;20205;-75
2023/05/24 06:31:20;;;;;;;15.13;3.80;;;13.10;99.90;;;;;;5073194;28;20498;-76
2023/05/24 06:33:46;;;;;;;14.43;4.17;;;13.00;99.90;;;;;;5071739;28;20178;-77
2023/05/24 06:36:12;;;;;;;13.40;3.50;;;13.00;99.90;;;;;;5071838;28;20198;-76
2023/05/24 06:38:40;;;;;;;21.17;4.27;;;13.10;99.90;;;;;;5071539;28;20215;-76
2023/05/24 06:41:05;;;;;;;16.17;3.83;;;13.10;99.90;;;;;;5071708;28;20680;-76
2023/05/24 06:43:32;;;;;;;12.97;3.43;;;13.30;99.90;;;;;;5072321;28;20155;-76
2023/05/24 06:45:57;;;;;;;17.93;3.87;;;13.30;99.90;;;;;;5073393;28;20538;-76
2023/05/24 06:48:25;;;;;;;13.83;3.93;;;13.30;99.90;;;;;;5071946;28;20175;-77
2023/05/24 06:50:51;;;;;;;26.57;3.70;;;13.40;99.90;;;;;;5072911;28;20174;-76
2023/05/24 06:53:17;;;;;;;19.23;5.27;;;13.40;99.90;;;;;;5073344;28;20195;-78
2023/05/24 06:55:43;;;;;;;14.43;3.80;;;13.60;99.90;;;;;;5073751;28;20213;-76
2023/05/24 06:58:13;;;;;;;13.60;3.93;;;13.70;99.90;;;;;;5071459;28;20506;-77
2023/05/24 07:00:41;;;;;;;11.87;3.87;;;13.50;99.90;;;;;;5072826;28;20154;-77
2023/05/24 07:03:08;;;;;;;15.60;3.90;;;13.60;99.90;;;;;;5071722;28;20190;-77
2023/05/24 07:05:35;;;;;;;19.67;3.97;;;13.80;99.90;;;;;;5071412;28;20173;-77
2023/05/24 07:08:01;;;;;;;10.37;3.27;;;13.90;99.90;;;;;;5072657;28;20170;-76
2023/05/24 07:10:27;;;;;;;15.57;3.30;;;14.10;99.90;;;;;;5071161;28;20161;-76
2023/05/24 07:12:52;;;;;;;18.97;4.33;;;14.20;99.90;;;;;;5070876;28;20534;-76
2023/05/24 07:15:18;;;;;;;13.87;3.73;;;14.40;99.90;;;;;;5072464;28;20195;-77
2023/05/24 07:17:43;;;;;;;17.90;3.87;;;14.80;99.90;;;;;;5073396;28;20178;-76
2023/05/24 07:20:10;;;;;;;9.77;3.20;;;14.90;99.90;;;;;;5072661;28;20174;-76
2023/05/24 07:22:36;;;;;;;14.40;3.30;;;15.30;99.90;;;;;;5072720;28;20246;-77
2023/05/24 07:25:02;;;;;;;14.60;3.43;;;15.60;99.90;;;;;;5072438;28;20656;-76
2023/05/24 07:27:27;;;;;;;12.83;3.20;;;15.70;99.90;;;;;;5072090;28;20168;-77
2023/05/24 07:29:53;;;;;;;13.27;2.70;;;15.60;99.90;;;;;;5072530;28;20179;-77
2023/05/24 07:32:22;;;;;;;12.67;2.90;;;15.60;99.90;;;;;;5072496;28;20163;-77
2023/05/24 07:34:49;;;;;;;10.95;2.45;;;15.50;99.90;;;;;;5071365;28;20173;-78
2023/05/24 07:37:16;;;;;;;12.67;2.80;;;15.60;99.90;;;;;;5072331;28;20191;-77
2023/05/24 07:39:42;;;;;;;14.73;3.63;;;15.70;99.90;;;;;;5072316;28;20159;-77
2023/05/24 07:42:08;;;;;;;10.63;3.50;;;16.00;99.90;;;;;;5072068;28;20159;-78
2023/05/24 07:44:33;;;;;;;18.93;3.50;;;16.30;99.90;;;;;;5072410;28;20167;-76
2023/05/24 07:47:01;;;;;;;12.53;3.23;;;16.40;99.90;;;;;;5070958;28;20541;-78
2023/05/24 07:49:27;;;;;;;18.17;3.87;;;16.50;99.90;;;;;;5070903;28;20620;-75
2023/05/24 07:51:57;;;;;;;13.90;3.47;;;16.60;99.90;;;;;;5070764;28;20635;-75
2023/05/24 07:54:22;;;;;;;15.77;3.63;;;16.50;99.90;;;;;;5071742;28;20164;-77
2023/05/24 07:56:49;;;;;;;12.90;3.00;;;16.70;99.90;;;;;;5071602;28;20294;-77
2023/05/24 07:59:15;;;;;;;18.77;3.07;;;16.60;99.90;;;;;;5071856;28;20246;-77
2023/05/24 08:01:41;;;;;;;12.37;3.10;;;16.60;99.90;;;;;;5072296;28;20652;-76
2023/05/24 08:04:08;;;;;;;10.40;3.63;;;16.50;99.90;;;;;;5073770;28;20655;-75
2023/05/24 08:06:34;;;;;;;16.80;3.80;;;16.50;99.90;;;;;;5075622;28;20175;-76
2023/05/24 08:09:04;;;;;;;15.03;4.20;;;16.20;99.90;;;;;;5075202;28;20632;-76
2023/05/24 08:11:30;;;;;;;14.10;3.63;;;16.30;99.90;;;;;;5074077;28;20256;-75
2023/05/24 08:13:57;;;;;;;14.63;4.73;;;16.10;99.90;;;;;;5074967;28;20255;-75
2023/05/24 08:16:23;;;;;;;10.70;3.57;;;16.10;99.90;;;;;;5073554;28;20570;-76
2023/05/24 08:18:49;;;;;;;17.03;3.97;;;16.20;99.90;;;;;;5074763;28;20170;-76
2023/05/24 08:21:16;;;;;;;14.80;4.67;;;16.30;99.90;;;;;;5075437;28;20155;-76
2023/05/24 08:23:43;;;;;;;17.30;4.57;;;16.50;99.90;;;;;;5074123;28;20234;-76
2023/05/24 08:26:09;;;;;;;17.37;4.43;;;16.70;99.90;;;;;;5074528;28;20283;-76
2023/05/24 08:28:34;;;;;;;15.47;4.73;;;16.70;99.90;;;;;;5075326;28;20203;-76
2023/05/24 08:31:01;;;;;;;12.13;4.23;;;16.90;99.90;;;;;;5076359;28;20177;-74
2023/05/24 08:33:28;;;;;;;15.80;4.57;;;17.00;99.90;;;;;;5074231;28;20169;-73
2023/05/24 08:35:53;;;;;;;16.97;4.57;;;17.20;99.50;;;;;;5074635;28;20192;-73
2023/05/24 08:38:20;;;;;;;12.30;3.90;;;17.20;97.30;;;;;;5073530;28;20168;-73
2023/05/24 08:40:47;;;;;;;14.40;4.33;;;17.40;97.50;;;;;;5074528;28;20176;-74
2023/05/24 08:43:13;;;;;;;15.37;4.37;;;17.40;98.60;;;;;;5075363;28;20153;-73
2023/05/24 08:45:39;;;;;;;16.83;5.03;;;17.60;98.10;;;;;;5073208;28;20180;-73
2023/05/24 08:48:07;;;;;;;13.90;4.50;;;17.80;97.10;;;;;;5076830;28;20167;-74
2023/05/24 08:50:33;;;;;;;13.57;4.90;;;17.90;95.90;;;;;;5076848;28;20235;-74
2023/05/24 08:53:01;;;;;;;10.03;4.63;;;17.80;95.90;;;;;;5075735;28;20229;-73
2023/05/24 08:55:28;;;;;;;16.83;5.17;;;17.50;95.40;;;;;;5075179;28;20197;-73
2023/05/24 08:57:55;;;;;;;16.83;5.37;;;17.40;95.90;;;;;;5074010;28;20521;-73
2023/05/24 09:00:21;;;;;;;15.13;5.63;;;17.30;96.60;;;;;;5073037;28;20165;-73
2023/05/24 09:02:48;;;;;;;11.90;4.53;;;17.40;96.50;;;;;;5073083;28;20192;-73
2023/05/24 09:05:16;;;;;;;10.43;4.40;;;17.50;96.20;;;;;;5074008;28;20180;-74
2023/05/24 09:07:43;;;;;;;15.57;5.10;;;17.50;95.90;;;;;;5073986;28;20176;-75
2023/05/24 09:10:09;;;;;;;15.50;5.27;;;17.40;96.40;;;;;;5072460;28;20187;-75
2023/05/24 09:12:37;;;;;;;18.33;5.50;;;17.30;97.70;;;;;;5072886;28;20258;-75
2023/05/24 09:15:06;;;;;;;13.07;5.40;;;17.50;97.40;;;;;;5073164;28;20173;-72
2023/05/24 09:17:36;;;;;;;13.00;5.57;;;17.60;97.00;;;;;;5072790;28;20193;-74
2023/05/24 09:20:05;;;;;;;15.00;5.87;;;17.80;97.50;;;;;;5072399;28;20257;-75
2023/05/24 09:22:32;;;;;;;11.57;5.10;;;18.10;97.30;;;;;;5072570;28;20602;-75
2023/05/24 09:25:01;;;;;;;18.23;5.83;;;18.10;95.60;;;;;;5072613;28;20712;-73
2023/05/24 09:27:30;;;;;;;17.77;5.73;;;18.20;96.10;;;;;;5074106;28;20162;-73
2023/05/24 09:29:56;;;;;;;16.00;5.70;;;18.30;95.70;;;;;;5073752;28;20174;-74
2023/05/24 09:32:23;;;;;;;20.43;5.70;;;18.40;95.90;;;;;;5072567;28;20293;-74
2023/05/24 09:34:54;;;;;;;18.83;6.03;;;18.50;96.50;;;;;;5073550;28;20164;-73
2023/05/24 09:37:25;;;;;;;12.50;6.37;;;18.80;96.70;;;;;;5073070;28;20154;-73
2023/05/24 09:39:51;;;;;;;15.20;7.07;;;18.90;95.70;;;;;;5073375;28;20167;-73
2023/05/24 09:42:22;;;;;;;16.57;6.30;;;18.90;95.30;;;;;;5073216;28;20315;-73
2023/05/24 09:45:00;;;;;;;20.13;6.60;;;19.10;96.40;;;;;;5072493;28;20311;-73
2023/05/24 09:47:33;;;;;;;18.97;8.00;;;19.60;96.00;;;;;;5073418;28;20523;-72
2023/05/24 09:50:01;;;;;;;19.37;7.33;;;19.50;95.50;;;;;;5073534;28;20198;-74
2023/05/24 09:52:27;;;;;;;18.03;7.93;;;19.50;95.90;;;;;;5071859;28;20264;-75
2023/05/24 09:54:53;;;;;;;17.97;8.27;;;19.40;95.40;;;;;;5071779;28;20175;-74
2023/05/24 09:57:21;;;;;;;21.30;8.47;;;19.40;95.90;;;;;;5073131;28;20178;-74
2023/05/24 09:59:49;;;;;;;19.57;8.07;;;19.20;96.00;;;;;;5073373;28;20662;-72
2023/05/24 10:02:17;;;;;;;17.33;7.83;;;19.20;96.70;;;;;;5072632;28;20509;-75
2023/05/24 10:04:43;;;;;;;18.03;7.80;;;19.20;95.90;;;;;;5071509;28;20176;-73
2023/05/24 10:07:11;;;;;;;15.07;9.10;;;19.30;96.30;;;;;;5072436;28;20533;-75
2023/05/24 10:09:38;;;;;;;17.97;8.53;;;19.60;96.10;;;;;;5072605;28;20179;-73
2023/05/24 10:12:07;;;;;;;23.60;8.93;;;19.80;95.30;;;;;;5071233;28;20175;-73
2023/05/24 10:14:36;;;;;;;23.23;9.37;;;19.80;95.60;;;;;;5071126;28;20160;-75
2023/05/24 10:17:04;;;;;;;22.87;8.17;;;20.10;95.20;;;;;;5072977;28;20228;-74
2023/05/24 10:19:34;;;;;;;18.27;7.83;;;20.30;95.20;;;;;;5071691;28;20261;-74
2023/05/24 10:22:03;;;;;;;19.83;8.27;;;20.10;95.20;;;;;;5071456;28;20276;-75
2023/05/24 10:24:34;;;;;;;29.33;8.90;;;20.10;95.30;;;;;;5072896;28;20183;-75
2023/05/24 10:27:03;;;;;;;14.40;7.77;;;20.10;94.90;;;;;;5071766;28;20312;-74
2023/05/24 10:29:44;;;;;;;18.40;7.90;;;20.50;95.00;;;;;;5071400;28;20581;-74
2023/05/24 10:32:15;;;;;;;17.83;5.90;;;20.70;94.40;;;;;;5072388;28;20162;-75
2023/05/24 10:34:42;;;;;;;13.87;5.87;;;21.00;93.20;;;;;;5072845;28;20162;-75
2023/05/24 10:37:08;;;;;;;17.13;5.40;;;21.20;92.60;;;;;;5071951;28;20187;-75
2023/05/24 10:39:34;;;;;;;12.60;4.93;;;21.00;93.30;;;;;;5070899;28;20539;-75
2023/05/24 10:42:05;;;;;;;15.87;5.57;;;21.20;93.00;;;;;;5072370;28;20161;-75
2023/05/24 10:44:32;;;;;;;13.20;5.60;;;21.40;93.20;;;;;;5071183;28;20300;-75
2023/05/24 10:47:11;;;;;;;14.27;5.50;;;21.50;92.70;;;;;;5072874;28;20171;-75
2023/05/24 10:49:46;;;;;;;19.13;6.07;;;21.40;92.20;;;;;;5072669;28;20155;-74
2023/05/24 10:52:12;;;;;;;14.80;5.27;;;21.60;91.90;;;;;;5071184;28;20167;-74
2023/05/24 10:54:38;;;;;;;15.00;5.23;;;21.20;92.70;;;;;;5072710;28;20160;-74
2023/05/24 10:57:07;;;;;;;13.77;5.00;;;20.70;93.40;;;;;;5072366;28;20671;-74
2023/05/24 10:59:40;;;;;;;16.97;5.07;;;20.80;93.00;;;;;;5071470;28;20171;-74
2023/05/24 11:02:13;;;;;;;18.30;5.30;;;20.90;93.20;;;;;;5072472;28;20204;-74
2023/05/24 11:04:50;;;;;;;12.30;4.50;;;20.90;92.90;;;;;;5070927;28;20272;-74
2023/05/24 11:07:19;;;;;;;14.00;5.10;;;20.70;93.20;;;;;;5071904;28;20154;-74
2023/05/24 11:09:51;;;;;;;13.80;4.80;;;20.80;92.70;;;;;;5072387;28;20250;-75
2023/05/24 11:12:21;;;;;;;17.10;4.60;;;21.40;92.50;;;;;;5071975;28;20159;-75
2023/05/24 11:14:51;;;;;;;11.30;3.90;;;21.80;91.90;;;;;;5071963;28;20178;-74
2023/05/24 11:17:21;;;;;;;10.87;4.57;;;21.80;91.20;;;;;;5070854;28;20167;-75
2023/05/24 11:19:51;;;;;;;10.07;4.13;;;21.50;91.40;;;;;;5070788;28;20236;-74
2023/05/24 11:22:18;;;;;;;12.57;4.17;;;21.20;91.30;;;;;;5070610;28;20170;-75
2023/05/24 11:24:44;;;;;;;11.03;3.73;;;20.80;91.80;;;;;;5071952;28;20156;-74
2023/05/24 11:27:12;;;;;;;11.83;4.07;;;20.60;91.60;;;;;;5071529;28;20175;-75
2023/05/24 11:29:43;;;;;;;12.37;4.10;;;20.40;92.20;;;;;;5070746;28;20167;-74
2023/05/24 11:32:14;;;;;;;10.37;4.27;;;20.50;91.70;;;;;;5070787;28;20267;-74
2023/05/24 11:34:40;;;;;;;9.63;4.40;;;20.80;91.30;;;;;;5072198;28;20171;-74
2023/05/24 11:37:06;;;;;;;11.50;4.67;;;21.40;91.10;;;;;;5072686;28;20179;-75
2023/05/24 11:39:34;;;;;;;15.53;4.63;;;21.50;91.30;;;;;;5075742;28;20171;-74
2023/05/24 11:42:01;;;;;;;11.47;4.40;;;21.30;90.90;;;;;;5074809;28;20160;-75
2023/05/24 11:44:30;;;;;;;14.73;4.97;;;21.70;90.50;;;;;;5075555;28;20532;-74
2023/05/24 11:47:03;;;;;;;12.33;4.70;;;22.40;89.60;;;;;;5074067;28;20175;-77
2023/05/24 11:49:29;;;;;;;11.57;4.47;;;22.60;88.80;;;;;;5075169;28;20540;-76
2023/05/24 11:51:56;;;;;;;10.50;4.50;;;22.50;88.90;;;;;;5075677;28;20163;-76
2023/05/24 11:54:23;;;;;;;11.67;3.97;;;22.40;88.30;;;;;;5075383;28;20222;-74
2023/05/24 11:56:50;;;;;;;10.00;4.17;;;22.60;87.10;;;;;;5075041;28;20652;-75
2023/05/24 11:59:25;;;;;;;13.50;4.30;;;23.40;85.10;;;;;;5073773;28;20643;-73
2023/05/24 12:02:05;;;;;;;17.40;4.57;;;23.50;85.40;;;;;;5073870;28;20535;-74
2023/05/24 12:04:31;;;;;;;11.03;4.30;;;23.00;86.30;;;;;;5073936;28;20525;-74
2023/05/24 12:06:58;;;;;;;12.07;4.43;;;22.50;86.40;;;;;;5075070;28;20180;-74
2023/05/24 12:09:24;;;;;;;13.47;4.10;;;22.00;86.80;;;;;;5075368;28;20503;-73
2023/05/24 12:11:51;;;;;;;12.00;4.10;;;21.50;87.90;;;;;;5075327;28;20179;-73
2023/05/24 12:14:21;;;;;;;11.87;4.67;;;21.30;88.80;;;;;;5075152;28;20159;-72
2023/05/24 12:16:48;;;;;;;12.97;4.30;;;20.90;90.00;;;;;;5074528;28;20175;-74
2023/05/24 12:19:18;;;;;;;10.43;4.70;;;20.40;90.30;;;;;;5073554;28;20214;-74
2023/05/24 12:21:47;;;;;;;11.80;4.43;;;20.40;90.60;;;;;;5074856;28;20234;-73
2023/05/24 12:24:18;;;;;;;12.87;4.60;;;20.60;90.40;;;;;;5073436;28;20186;-74
2023/05/24 12:26:46;;;;;;;10.07;4.50;;;20.80;90.70;;;;;;5073440;28;20236;-75
2023/05/24 12:29:12;;;;;;;7.83;4.70;;;20.80;90.50;;;;;;5074349;28;20175;-72
2023/05/24 12:31:45;;;;;;;12.07;4.50;;;20.50;90.80;;;;;;5073536;28;20629;-74
2023/05/24 12:34:17;;;;;;;14.43;4.63;;;21.40;90.00;;;;;;5073721;28;20167;-73
2023/05/24 12:36:43;;;;;;;12.03;3.97;;;22.40;88.10;;;;;;5073271;28;20202;-73
2023/05/24 12:39:35;;;;;;;9.87;3.83;;;22.80;86.60;;;;;;5073318;28;20541;-74
2023/05/24 12:42:02;;;;;;;10.53;4.10;;;23.50;84.40;;;;;;5074763;28;20181;-73